메인 페이지
METAR-TAF:

METAR-TAF

공항 :

Little Rock National Airport (Adams Field)

리틀록, 아칸소, 미국

위도: 34-43-36N, 경도: 092-14-10W, 고도: 79m

현재 날씨관측

예보는 54분 전, 06:53시(UTC)에 발표되었습니다.
무풍
온도 17°C
습도 94%
기압 1015 hPa
시정: 16.1km
고도 25000ft 상공 구름 많음

METAR: KLIT 200653Z 00000KT 10SM BKN250 17/16 A2997 RMK AO2 SLP147 T01670156 $

시각: 02:47 (07:47 UTC)

예보

예보는 2 시간 27분 전, 05:20시(UTC)에 발표되었습니다.
예보 대상 시간: 20일 06시부터 21일 06시까지 (UTC)
여러 방향의 바람 5kt
시정: 10km
맑음
20일 1400시부터 (UTC)
8kt
시정: 10km
고도 3500ft 상공 구름 많음
20일 1800시부터 (UTC)
동남동8kt
시정: 10km
고도 5000ft 상공 구름 많음, 적란운.
시계 내 뇌우

TAF: KLIT 200520Z 2006/2106 VRB05KT P6SM SKC FM201400 09008KT P6SM BKN035 FM201800 12008KT P6SM VCTS BKN050CB

4,000개 이상의 공항 관측 자료 및 예보 (METAR 및 TAF 보고).

지도상에서 검색 가능한 기상관측소가 노란 점과 빨간 점으로 표시되어 있습니다.

기상관측소 명을 보려면 표시 위로 마우스를 이동하세요.

날씨 관측과 예보를 보려면 클릭하세요.

지도 변경 : 확대하려면 엑스 표시가 있는 녹색 버튼, 축소하려면 빼기 표시가 있는 녹색 버튼, 다음 페이지의 지도를 보려면 녹색 화살표를 클릭하세요.


METAR-TAF: